createdAt,value
2022-08-18T00:01:13.411Z,95.03
2022-08-18T00:03:55.641Z,95.77
2022-08-18T00:06:24.709Z,96.37
2022-08-18T00:08:57.193Z,96.67
2022-08-18T00:11:24.394Z,96.97
2022-08-18T00:13:51.515Z,96.60
2022-08-18T00:16:18.558Z,96.56
2022-08-18T00:18:45.623Z,97.50
2022-08-18T00:21:12.791Z,96.61
2022-08-18T00:23:39.898Z,96.78
2022-08-18T00:26:06.927Z,96.82
2022-08-18T00:28:33.975Z,97.23
2022-08-18T00:31:01.353Z,97.88
2022-08-18T00:33:28.423Z,98.32
2022-08-18T00:35:56.560Z,97.71
2022-08-18T00:38:25.300Z,98.17
2022-08-18T00:40:54.541Z,98.37
2022-08-18T00:43:27.453Z,98.14
2022-08-18T00:45:54.941Z,98.80
2022-08-18T00:48:24.010Z,98.68
2022-08-18T00:50:59.213Z,99.12
2022-08-18T00:53:37.943Z,99.14
2022-08-18T00:56:08.630Z,100.00
2022-08-18T00:58:43.427Z,99.69
2022-08-18T01:01:11.704Z,99.74
2022-08-18T01:03:41.902Z,99.28
2022-08-18T01:06:27.301Z,98.20
2022-08-18T01:08:55.874Z,98.85
2022-08-18T01:11:23.244Z,99.51
2022-08-18T01:13:58.408Z,99.85
2022-08-18T01:16:52.348Z,100.00
2022-08-18T01:19:44.861Z,100.00
2022-08-18T01:22:35.229Z,100.00
2022-08-18T01:25:21.961Z,100.00
2022-08-18T01:27:57.046Z,100.00
2022-08-18T01:30:28.992Z,100.00
2022-08-18T01:32:57.559Z,100.00
2022-08-18T01:35:26.942Z,100.00
2022-08-18T01:37:55.124Z,100.00
2022-08-18T01:41:22.835Z,100.00
2022-08-18T01:43:12.992Z,100.00
2022-08-18T01:45:42.228Z,100.00
2022-08-18T01:48:09.534Z,100.00
2022-08-18T01:50:39.729Z,100.00
2022-08-18T01:53:08.042Z,100.00
2022-08-18T01:55:37.529Z,100.00
2022-08-18T01:58:07.828Z,100.00
2022-08-18T02:00:36.074Z,100.00
2022-08-18T02:03:09.706Z,100.00
2022-08-18T02:05:42.171Z,100.00
2022-08-18T02:08:12.307Z,100.00
2022-08-18T02:10:40.067Z,100.00
2022-08-18T02:13:07.601Z,100.00
2022-08-18T02:15:34.788Z,100.00
2022-08-18T02:18:01.963Z,100.00
2022-08-18T02:20:29.333Z,100.00
2022-08-18T02:22:58.533Z,100.00
2022-08-18T02:25:25.728Z,100.00
2022-08-18T02:27:53.315Z,100.00
2022-08-18T02:30:20.761Z,100.00
2022-08-18T02:32:48.545Z,100.00
2022-08-18T02:35:15.851Z,100.00
2022-08-18T02:37:47.681Z,100.00
2022-08-18T02:40:16.220Z,100.00
2022-08-18T02:42:45.623Z,100.00
2022-08-18T02:45:14.049Z,100.00
2022-08-18T02:47:43.102Z,100.00
2022-08-18T02:50:13.559Z,100.00
2022-08-18T02:52:41.241Z,100.00
2022-08-18T02:55:09.129Z,100.00
2022-08-18T02:57:36.399Z,100.00
2022-08-18T03:00:04.402Z,100.00
2022-08-18T03:02:32.325Z,100.00
2022-08-18T03:04:59.466Z,100.00
2022-08-18T03:07:26.580Z,100.00
2022-08-18T03:09:53.597Z,100.00
2022-08-18T03:12:20.620Z,100.00
2022-08-18T03:14:47.732Z,100.00
2022-08-18T03:17:15.023Z,100.00
2022-08-18T03:19:44.938Z,100.00
2022-08-18T03:22:27.731Z,100.00
2022-08-18T03:24:57.298Z,100.00
2022-08-18T03:27:25.011Z,100.00
2022-08-18T03:29:52.396Z,100.00
2022-08-18T03:32:19.454Z,100.00
2022-08-18T03:34:46.477Z,100.00
2022-08-18T03:37:15.903Z,100.00
2022-08-18T03:39:43.181Z,100.00
2022-08-18T03:42:10.551Z,100.00
2022-08-18T03:44:37.599Z,100.00
2022-08-18T03:47:10.046Z,100.00
2022-08-18T03:49:38.465Z,100.00
2022-08-18T03:52:09.309Z,100.00
2022-08-18T03:54:38.759Z,100.00
2022-08-18T03:57:09.312Z,100.00
2022-08-18T03:59:36.656Z,100.00
2022-08-18T04:02:05.158Z,100.00
2022-08-18T04:04:32.477Z,100.00
2022-08-18T04:07:06.549Z,100.00
2022-08-18T04:09:35.382Z,100.00
2022-08-18T04:12:16.712Z,100.00
2022-08-18T04:14:48.299Z,100.00
2022-08-18T04:17:24.621Z,100.00
2022-08-18T04:19:53.790Z,100.00
2022-08-18T04:22:21.010Z,100.00
2022-08-18T04:24:50.145Z,100.00
2022-08-18T04:27:19.266Z,100.00
2022-08-18T04:29:47.085Z,100.00
2022-08-18T04:32:14.545Z,100.00
2022-08-18T04:34:41.658Z,100.00
2022-08-18T04:37:09.588Z,100.00
2022-08-18T04:39:37.717Z,100.00
2022-08-18T04:42:05.917Z,100.00
2022-08-18T04:44:34.354Z,100.00
2022-08-18T04:47:02.339Z,100.00
2022-08-18T04:49:31.437Z,100.00
2022-08-18T04:52:36.967Z,100.00
2022-08-18T04:55:04.929Z,100.00
2022-08-18T04:57:34.914Z,100.00
2022-08-18T05:00:04.290Z,100.00
2022-08-18T05:02:33.031Z,100.00
2022-08-18T05:05:01.495Z,100.00
2022-08-18T05:07:30.309Z,100.00
2022-08-18T05:09:57.434Z,100.00
2022-08-18T05:12:26.458Z,100.00
2022-08-18T05:14:56.618Z,100.00
2022-08-18T05:17:28.765Z,100.00
2022-08-18T05:20:00.977Z,100.00
2022-08-18T05:22:31.792Z,100.00
2022-08-18T05:25:00.599Z,100.00
2022-08-18T05:27:32.922Z,100.00
2022-08-18T05:30:00.011Z,100.00
2022-08-18T05:32:47.877Z,100.00
2022-08-18T05:35:23.631Z,100.00
2022-08-18T05:38:06.233Z,100.00
2022-08-18T05:40:34.356Z,99.71
2022-08-18T05:43:03.647Z,100.00
2022-08-18T05:45:30.856Z,100.00
2022-08-18T05:48:02.138Z,100.00
2022-08-18T05:50:32.659Z,100.00
2022-08-18T05:53:10.762Z,100.00
2022-08-18T05:56:05.322Z,100.00
2022-08-18T05:58:44.370Z,99.43
2022-08-18T06:01:20.955Z,99.39
2022-08-18T06:04:01.546Z,99.24
2022-08-18T06:06:30.693Z,99.32
2022-08-18T06:09:17.586Z,99.22
2022-08-18T06:11:45.517Z,99.41
2022-08-18T06:14:13.465Z,98.91
2022-08-18T06:17:09.025Z,99.62
2022-08-18T06:19:52.320Z,99.81
2022-08-18T06:22:36.392Z,99.35
2022-08-18T06:25:37.383Z,98.52
2022-08-18T06:28:09.138Z,98.80
2022-08-18T06:30:41.997Z,98.12
2022-08-18T06:33:33.606Z,99.08
2022-08-18T06:36:32.866Z,98.32
2022-08-18T06:39:16.619Z,97.24
2022-08-18T06:41:48.986Z,97.82
2022-08-18T06:44:39.830Z,97.98
2022-08-18T06:47:09.702Z,98.03
2022-08-18T06:49:46.609Z,97.07
2022-08-18T06:52:25.448Z,96.99
2022-08-18T06:54:54.727Z,95.99
2022-08-18T06:57:35.137Z,97.36
2022-08-18T07:00:08.558Z,95.84
2022-08-18T07:02:45.669Z,94.93
2022-08-18T07:05:20.638Z,95.20
2022-08-18T07:08:10.694Z,93.85
2022-08-18T07:10:41.897Z,91.67
2022-08-18T07:13:18.053Z,91.20
2022-08-18T07:15:45.697Z,89.47
2022-08-18T07:18:14.392Z,87.51
2022-08-18T07:20:55.133Z,86.70
2022-08-18T07:23:25.312Z,86.50
2022-08-18T07:26:00.474Z,86.62
2022-08-18T07:28:31.096Z,84.54
2022-08-18T07:31:35.836Z,83.88
2022-08-18T07:34:14.828Z,83.99
2022-08-18T07:36:51.128Z,82.66
2022-08-18T07:39:31.675Z,80.82
2022-08-18T07:42:11.170Z,81.91
2022-08-18T07:44:59.429Z,80.92
2022-08-18T07:47:37.941Z,80.32
2022-08-18T07:50:31.493Z,79.28
2022-08-18T07:53:15.941Z,80.53
2022-08-18T07:55:53.782Z,80.04
2022-08-18T07:58:30.677Z,80.13
2022-08-18T08:01:16.053Z,82.50
2022-08-18T08:03:58.369Z,83.16
2022-08-18T08:07:06.468Z,83.06
2022-08-18T08:10:16.041Z,84.77
2022-08-18T08:12:50.332Z,84.61
2022-08-18T08:15:32.129Z,85.04
2022-08-18T08:18:10.977Z,85.56
2022-08-18T08:20:45.897Z,86.90
2022-08-18T08:23:31.749Z,86.57
2022-08-18T08:26:02.964Z,86.50
2022-08-18T08:28:39.439Z,86.36
2022-08-18T08:31:37.337Z,88.01
2022-08-18T08:34:19.698Z,88.15
2022-08-18T08:36:48.067Z,87.56
2022-08-18T08:39:28.314Z,88.39
2022-08-18T08:42:29.761Z,87.39
2022-08-18T08:45:03.514Z,88.83
2022-08-18T08:47:39.825Z,87.32
2022-08-18T08:50:18.229Z,88.38
2022-08-18T08:52:58.839Z,88.62
2022-08-18T08:55:32.678Z,88.67
2022-08-18T08:58:28.788Z,88.77
2022-08-18T09:00:57.712Z,87.35
2022-08-18T09:03:46.150Z,88.15
2022-08-18T09:06:19.107Z,88.42
2022-08-18T09:09:04.880Z,87.25
2022-08-18T09:11:51.826Z,89.00
2022-08-18T09:14:30.897Z,89.47
2022-08-18T09:17:40.690Z,87.45
2022-08-18T09:20:26.501Z,87.19
2022-08-18T09:23:03.550Z,86.88
2022-08-18T09:25:39.139Z,86.76
2022-08-18T09:28:17.031Z,85.08
2022-08-18T09:31:15.043Z,83.85
2022-08-18T09:34:10.617Z,83.84
2022-08-18T09:36:59.645Z,83.07
2022-08-18T09:39:54.806Z,82.57
2022-08-18T09:42:59.795Z,84.29
2022-08-18T09:45:51.622Z,82.88
2022-08-18T09:48:28.519Z,80.66
2022-08-18T09:51:41.280Z,80.20
2022-08-18T09:54:13.273Z,80.34
2022-08-18T09:56:55.693Z,80.51
2022-08-18T09:59:35.379Z,77.25
2022-08-18T10:02:14.061Z,76.11
2022-08-18T10:04:50.438Z,76.22
2022-08-18T10:07:41.756Z,76.45
2022-08-18T10:13:39.089Z,74.65
2022-08-18T10:20:08.860Z,75.10
2022-08-18T10:22:54.760Z,76.39
2022-08-18T10:25:41.177Z,76.67
2022-08-18T10:28:12.662Z,75.06
2022-08-18T10:30:56.258Z,75.35
2022-08-18T10:34:19.316Z,74.99
2022-08-18T10:36:58.851Z,75.98
2022-08-18T10:39:39.677Z,73.55
2022-08-18T10:42:32.325Z,71.53
2022-08-18T10:46:12.993Z,71.13
2022-08-18T10:48:40.077Z,71.49
2022-08-18T10:51:21.685Z,71.76
2022-08-18T10:54:03.495Z,72.20
2022-08-18T10:56:54.337Z,71.48
2022-08-18T11:03:01.885Z,69.83
2022-08-18T11:05:31.874Z,68.47
2022-08-18T11:08:04.625Z,67.49
2022-08-18T11:11:06.257Z,67.51
2022-08-18T11:13:40.816Z,66.97
2022-08-18T11:16:26.480Z,66.76
2022-08-18T11:19:03.696Z,67.29
2022-08-18T11:21:42.076Z,68.28
2022-08-18T11:24:17.734Z,68.11
2022-08-18T11:26:55.664Z,68.51
2022-08-18T11:29:41.068Z,67.40
2022-08-18T11:32:22.132Z,65.40
2022-08-18T11:34:53.941Z,67.38
2022-08-18T11:37:49.041Z,68.84
2022-08-18T11:43:41.121Z,67.28
2022-08-18T11:46:16.454Z,66.25
2022-08-18T11:51:35.964Z,65.38
2022-08-18T11:54:12.523Z,66.64
2022-08-18T11:56:39.574Z,66.80
2022-08-18T11:59:53.606Z,67.66
2022-08-18T12:02:25.284Z,70.35
2022-08-18T12:05:10.168Z,70.72
2022-08-18T12:07:45.360Z,70.82
2022-08-18T12:10:29.029Z,69.68
2022-08-18T12:13:00.345Z,69.27
2022-08-18T12:15:43.419Z,68.54
2022-08-18T12:18:18.943Z,68.48
2022-08-18T12:20:55.279Z,67.84
2022-08-18T12:23:22.275Z,66.26
2022-08-18T12:25:51.830Z,68.40
2022-08-18T12:28:22.122Z,68.15
2022-08-18T12:33:48.171Z,68.29
2022-08-18T12:36:25.000Z,68.33
2022-08-18T12:38:57.102Z,67.43
2022-08-18T12:41:24.388Z,66.19
2022-08-18T12:46:42.963Z,67.30
2022-08-18T12:49:19.735Z,67.24
2022-08-18T12:51:50.429Z,66.36
2022-08-18T12:54:18.719Z,66.12
2022-08-18T12:56:51.496Z,67.04
2022-08-18T12:59:18.956Z,67.46
2022-08-18T13:01:46.715Z,66.58
2022-08-18T13:04:15.487Z,66.34
2022-08-18T13:07:00.743Z,66.62
2022-08-18T13:09:47.939Z,67.18
2022-08-18T13:12:18.872Z,66.83
2022-08-18T13:14:47.496Z,67.43
2022-08-18T13:17:32.113Z,67.58
2022-08-18T13:20:14.386Z,65.55
2022-08-18T13:22:42.345Z,65.74
2022-08-18T13:25:28.821Z,64.46
2022-08-18T13:28:00.610Z,62.87
2022-08-18T13:30:32.139Z,63.16
2022-08-18T13:33:05.344Z,63.70
2022-08-18T13:35:52.453Z,62.10
2022-08-18T13:38:27.204Z,62.09
2022-08-18T13:40:58.649Z,61.25
2022-08-18T13:43:39.302Z,60.50
2022-08-18T13:46:09.202Z,59.77
2022-08-18T13:48:38.521Z,59.98
2022-08-18T13:51:08.661Z,60.06
2022-08-18T13:53:50.563Z,59.04
2022-08-18T13:56:30.966Z,60.58
2022-08-18T13:58:59.377Z,61.16
2022-08-18T14:01:51.359Z,59.38
2022-08-18T14:04:20.559Z,58.67
2022-08-18T14:06:56.135Z,58.78
2022-08-18T14:09:36.377Z,61.17
2022-08-18T14:12:21.765Z,60.73
2022-08-18T14:14:53.086Z,58.77
2022-08-18T14:17:22.614Z,58.67
2022-08-18T14:20:15.423Z,59.44
2022-08-18T14:23:10.376Z,59.22
2022-08-18T14:25:56.181Z,57.68
2022-08-18T14:28:24.537Z,60.34
2022-08-18T14:30:54.664Z,59.16
2022-08-18T14:33:27.186Z,58.79
2022-08-18T14:36:06.447Z,60.14
2022-08-18T14:38:38.190Z,59.58
2022-08-18T14:41:07.745Z,59.50
2022-08-18T14:44:12.693Z,59.26
2022-08-18T14:46:23.704Z,60.62
2022-08-18T14:48:57.465Z,60.66
2022-08-18T14:51:27.064Z,59.68
2022-08-18T14:53:55.299Z,59.67
2022-08-18T14:56:24.466Z,60.50
2022-08-18T14:58:56.785Z,61.14
2022-08-18T15:01:24.451Z,60.25
2022-08-18T15:03:51.633Z,58.63
2022-08-18T15:06:27.137Z,57.56
2022-08-18T15:08:57.090Z,57.81
2022-08-18T15:11:25.073Z,57.44
2022-08-18T15:13:55.166Z,56.96
2022-08-18T15:16:31.632Z,57.12
2022-08-18T15:19:00.475Z,56.49
2022-08-18T15:21:47.827Z,56.77
2022-08-18T15:24:37.647Z,57.49
2022-08-18T15:27:10.418Z,58.16
2022-08-18T15:29:46.441Z,59.39
2022-08-18T15:32:15.266Z,58.59
2022-08-18T15:34:46.134Z,57.26
2022-08-18T15:37:19.397Z,57.69
2022-08-18T15:39:51.910Z,57.19
2022-08-18T15:42:23.555Z,55.98
2022-08-18T15:44:53.574Z,55.33
2022-08-18T15:47:22.159Z,53.41
2022-08-18T15:49:52.536Z,54.18
2022-08-18T15:52:26.020Z,53.06
2022-08-18T15:54:56.948Z,53.22
2022-08-18T15:57:39.151Z,54.17
2022-08-18T16:00:08.184Z,53.28
2022-08-18T16:02:40.029Z,52.79
2022-08-18T16:05:09.061Z,54.48
2022-08-18T16:07:41.107Z,55.37
2022-08-18T16:10:13.376Z,56.06
2022-08-18T16:12:40.985Z,55.86
2022-08-18T16:15:19.825Z,56.76
2022-08-18T16:17:53.299Z,57.95
2022-08-18T16:20:23.882Z,58.34
2022-08-18T16:22:52.582Z,58.37
2022-08-18T16:25:20.674Z,58.48
2022-08-18T16:27:48.082Z,58.02
2022-08-18T16:30:22.662Z,57.60
2022-08-18T16:32:50.820Z,58.97
2022-08-18T16:35:18.980Z,58.38
2022-08-18T16:37:49.077Z,58.29
2022-08-18T16:40:18.807Z,58.40
2022-08-18T16:42:46.845Z,57.81
2022-08-18T16:45:14.970Z,58.12
2022-08-18T16:47:42.030Z,58.90
2022-08-18T16:50:14.676Z,59.44
2022-08-18T16:52:41.857Z,58.49
2022-08-18T16:55:11.190Z,59.14
2022-08-18T16:57:58.735Z,58.81
2022-08-18T17:00:45.246Z,59.11
2022-08-18T17:03:31.605Z,60.42
2022-08-18T17:06:04.987Z,59.65
2022-08-18T17:08:35.342Z,60.26
2022-08-18T17:11:04.456Z,60.76
2022-08-18T17:13:33.503Z,60.59
2022-08-18T17:16:00.672Z,60.37
2022-08-18T17:18:29.432Z,59.72
2022-08-18T17:21:01.159Z,60.53
2022-08-18T17:23:28.297Z,60.74
2022-08-18T17:25:56.203Z,60.94
2022-08-18T17:28:29.963Z,61.26
2022-08-18T17:30:59.292Z,61.96
2022-08-18T17:33:31.124Z,62.77
2022-08-18T17:36:04.033Z,61.97
2022-08-18T17:38:49.367Z,62.18
2022-08-18T17:41:18.605Z,62.37
2022-08-18T17:43:46.045Z,62.04
2022-08-18T17:46:26.895Z,62.18
2022-08-18T17:49:02.151Z,62.41
2022-08-18T17:51:44.331Z,62.58
2022-08-18T17:54:17.886Z,63.08
2022-08-18T17:56:52.558Z,62.53
2022-08-18T17:59:46.124Z,62.67
2022-08-18T18:02:29.334Z,62.76
2022-08-18T18:04:59.917Z,62.49
2022-08-18T18:07:35.498Z,63.26
2022-08-18T18:10:05.464Z,63.71
2022-08-18T18:12:35.641Z,63.86
2022-08-18T18:15:10.081Z,63.71
2022-08-18T18:17:40.408Z,64.31
2022-08-18T18:20:12.172Z,64.27
2022-08-18T18:22:44.450Z,64.35
2022-08-18T18:25:13.424Z,64.87
2022-08-18T18:27:43.633Z,65.05
2022-08-18T18:30:27.557Z,65.34
2022-08-18T18:32:58.762Z,65.56
2022-08-18T18:35:31.031Z,65.19
2022-08-18T18:38:04.264Z,65.90
2022-08-18T18:40:41.228Z,66.54
2022-08-18T18:43:28.982Z,65.96
2022-08-18T18:46:04.870Z,66.30
2022-08-18T18:48:52.137Z,66.67
2022-08-18T18:51:33.951Z,66.80
2022-08-18T18:54:50.001Z,67.52
2022-08-18T18:57:30.065Z,68.55
2022-08-18T19:00:16.792Z,68.30
2022-08-18T19:02:46.862Z,68.89
2022-08-18T19:05:24.844Z,69.73
2022-08-18T19:08:05.268Z,70.04
2022-08-18T19:10:44.063Z,70.65
2022-08-18T19:13:26.823Z,70.90
2022-08-18T19:16:23.557Z,69.81
2022-08-18T19:19:35.383Z,70.50
2022-08-18T19:22:05.712Z,70.90
2022-08-18T19:24:38.616Z,70.78
2022-08-18T19:27:12.054Z,71.09
2022-08-18T19:29:43.534Z,71.88
2022-08-18T19:32:16.851Z,72.39
2022-08-18T19:34:51.425Z,72.21
2022-08-18T19:37:53.785Z,73.89
2022-08-18T19:40:32.953Z,73.63
2022-08-18T19:43:11.348Z,73.59
2022-08-18T19:45:58.702Z,74.30
2022-08-18T19:48:32.038Z,75.24
2022-08-18T19:51:47.698Z,75.69
2022-08-18T19:54:39.949Z,76.13
2022-08-18T19:57:32.895Z,75.75
2022-08-18T20:00:15.013Z,76.16
2022-08-18T20:03:18.424Z,76.18
2022-08-18T20:05:52.858Z,76.41
2022-08-18T20:08:36.573Z,77.17
2022-08-18T20:11:03.585Z,77.74
2022-08-18T20:13:35.218Z,77.96
2022-08-18T20:16:02.198Z,79.01
2022-08-18T20:18:34.422Z,78.34
2022-08-18T20:21:22.519Z,79.01
2022-08-18T20:24:02.770Z,79.39
2022-08-18T20:26:38.650Z,79.60
2022-08-18T20:29:06.383Z,80.92
2022-08-18T20:31:49.089Z,81.38
2022-08-18T20:34:17.623Z,82.24
2022-08-18T20:36:47.485Z,82.09
2022-08-18T20:39:41.076Z,81.96
2022-08-18T20:42:37.230Z,82.51
2022-08-18T20:45:10.308Z,82.97
2022-08-18T20:48:00.545Z,82.63
2022-08-18T20:50:57.439Z,83.18
2022-08-18T20:53:49.786Z,84.29
2022-08-18T20:56:32.489Z,84.34
2022-08-18T20:59:19.973Z,84.60
2022-08-18T21:01:56.118Z,84.47
2022-08-18T21:04:53.073Z,85.32
2022-08-18T21:07:36.544Z,86.33
2022-08-18T21:10:12.958Z,86.86
2022-08-18T21:12:51.701Z,87.27
2022-08-18T21:15:26.431Z,87.56
2022-08-18T21:18:02.259Z,88.04
2022-08-18T21:20:31.336Z,88.39
2022-08-18T21:23:06.317Z,88.57
2022-08-18T21:25:34.047Z,88.67
2022-08-18T21:28:03.796Z,88.13
2022-08-18T21:30:31.884Z,88.68
2022-08-18T21:32:58.961Z,88.97
2022-08-18T21:35:29.982Z,89.31
2022-08-18T21:38:03.520Z,89.58
2022-08-18T21:40:36.308Z,89.18
2022-08-18T21:43:03.511Z,89.85
2022-08-18T21:45:31.705Z,90.06
2022-08-18T21:48:04.502Z,90.69
2022-08-18T21:50:34.593Z,89.43
2022-08-18T21:53:14.510Z,90.30
2022-08-18T21:55:54.915Z,90.66
2022-08-18T21:58:45.150Z,91.95
2022-08-18T22:01:20.492Z,92.17
2022-08-18T22:03:49.216Z,91.73
2022-08-18T22:06:33.498Z,92.38
2022-08-18T22:09:39.363Z,93.15
2022-08-18T22:12:47.869Z,93.68
2022-08-18T22:15:24.237Z,93.80
2022-08-18T22:17:59.569Z,93.96
2022-08-18T22:20:51.148Z,94.26
2022-08-18T22:23:51.836Z,94.13
2022-08-18T22:26:37.065Z,94.38
2022-08-18T22:29:08.122Z,94.69
2022-08-18T22:31:38.492Z,93.66
2022-08-18T22:34:10.024Z,93.71
2022-08-18T22:36:40.775Z,94.01
2022-08-18T22:39:10.886Z,93.73
2022-08-18T22:41:39.253Z,94.44
2022-08-18T22:44:07.291Z,94.85
2022-08-18T22:46:34.906Z,94.35
2022-08-18T22:49:03.827Z,93.73
2022-08-18T22:51:32.764Z,94.34
2022-08-18T22:53:59.804Z,94.96
2022-08-18T22:56:35.063Z,94.88
2022-08-18T22:59:13.765Z,95.45
2022-08-18T23:01:50.070Z,95.54
2022-08-18T23:04:20.140Z,94.91
2022-08-18T23:06:53.749Z,94.90
2022-08-18T23:09:30.441Z,94.76
2022-08-18T23:12:15.892Z,95.22
2022-08-18T23:14:46.237Z,94.26
2022-08-18T23:17:14.201Z,93.53
2022-08-18T23:19:42.596Z,93.72
2022-08-18T23:22:10.573Z,93.96
2022-08-18T23:24:38.452Z,94.15
2022-08-18T23:27:06.605Z,94.35
2022-08-18T23:29:37.390Z,95.26
2022-08-18T23:32:06.861Z,95.15
2022-08-18T23:34:35.023Z,95.63
2022-08-18T23:37:03.549Z,96.40
2022-08-18T23:39:33.043Z,95.68
2022-08-18T23:42:01.629Z,95.63
2022-08-18T23:44:29.300Z,95.84
2022-08-18T23:46:58.065Z,95.83
2022-08-18T23:49:29.008Z,95.03
2022-08-18T23:51:57.718Z,95.92
2022-08-18T23:54:27.819Z,95.33
2022-08-18T23:56:55.121Z,94.63
2022-08-18T23:59:27.027Z,94.42
